Main page
METAR-TAF:

METAR-TAF

Airports :

Georgetown, Ascension Island

RAF Ascension Island

latitude: 07-58S, longitude: 014-24W, elevation: 86 m

Current weather observation

The report was made 6 hours and 24 minutes ago, at 20:50 UTC
Wind 14 kt from the East/Southeast
Temperature 23°C
Humidity 78%
Pressure 1013 hPa
Visibility 10 km or more
Few clouds at a height of 3300 ft

METAR: FHAW 182050Z 12014KT 9999 FEW033 23/19 Q1013 BLU

Time: 03:14 (03:14 UTC)

Forecast

The report was made 10 hours and 44 minutes ago, at 16:30 UTC
Forecast valid from 18 at 18 UTC to 19 at 12 UTC
Wind 15 kt from the Southeast
Visibility 10 km or more
Few clouds at a height of 2200 ft
Scattered clouds at a height of 4000 ft
Probability 30% :
Temporary
from 18 at 18 UTC to 19 at 09 UTC
Scattered clouds at a height of 2200 ft
light rain showers

TAF: FHAW 181630Z 1818/1912 14015KT 9999 FEW022 SCT040 PROB30 TEMPO 1818/1909 -SHRA SCT022

Weather observations and forecasts of more than 4000 airports (METAR and TAF reports).

The available stations are represented by yellow and red dots on the map.

Hover mouse over dot to see the name of the station.

Then click to see weather observations and forecasts.

To change the map : click on the green buttons with a black cross to zoom in, on the green button with a dash to zoom out, or on the green arrows for adjacent maps.


METAR-TAF: